Share

Noyes, MN (56740)

11:52 PM CDT on April 23, 2014 (GMT -0500)
Hallock Municipal (KHCO) Elev 820 ft | 48.75 °N, 96.94 °W | Change Station
Active Advisory: Flood WarningFlood Watch

Current weather conditions updated 19 minutes ago

Light Rain
Light Rain
39 °F
Feels Like 31 °F
N
15
Wind Variable Wind from ESE
Gusts 20 mph
Sunrise 6:22 AM
Sunset 8:32 PM
Moon Waning Crescent

Tomorrow is forecast to be Cooler than today. Cloudy with rain.

Pressure 29.87 in
Visibility 10.0 miles
Clouds Overcast 9000 ft
Windchill 31 °F
Dew Point 37 °F
Humidity 93%
Rainfall 0.65 in
Snow Depth Not available.
UV 0 out of 16
Pollen 7.80 out of 12
Air Quality Not available.
Flu Activity Sporadic
METAR KHCO 240433Z AUTO 12013G17KT 10SM -RA OVC090 04/03 A2987 RMK AO2 P0001

More Conditions Fewer Conditions

Pressure 29.87 in
Visibility 10.0 miles
Clouds Overcast 9000 ft
Windchill 31 °F
Dew Point 37 °F
Humidity 93%
Rainfall 0.65 in
Snow Depth Not available.
UV 0 out of 16
Pollen 7.80 out of 12
Air Quality Not available.
Flu Activity Sporadic
METAR KHCO 240433Z AUTO 12013G17KT 10SM -RA OVC090 04/03 A2987 RMK AO2 P0001

More Conditions Fewer Conditions

10-Day Weather Forecast

Almanac

Astronomy

Apr. 23, 2014 Rise Set
Actual Time 6:22 AM CDT 8:32 PM CDT
Civil Twilight 5:47 AM CDT 9:07 PM CDT
Nautical Twilight 5:04 AM CDT 9:50 PM CDT
Astronomical Twilight 4:16 AM CDT 10:39 PM CDT
Moon 3:26 AM CDT (4/23) 2:12 PM CDT (4/23)
Length of Visible Light 15h 19m
Length of Day
14h 10m
Tomorrow will be 3m 21s longer.
Waning Crescent, 29% of the Moon is Illuminated
Apr 24
Waning Crescent
Apr 29
New
May 6
First Quarter
May 14
Full
May 21
Last Quarter

Yesterday's Extremes

State Highs State Lows

Community

  • Stacked
    Stacked
  • Balance
    Balance
  • Nestled In
    Nestled In
  • Stunning Sunrise
    Stunning Sunrise
  • spring flowers
    spring flowers

WunderPhotos

Upload Photos

1,704,562 photos uploaded!

WunderBlogs® & News

Nearby

Snow Depth

Station Depth Elevation
No new snow has been reported.

Coastal Water Temperatures

Place Temperature
No Stations Reporting

Earthquake Activity

City Distance Mag. Time & Date
No recent earthquake activity has been reported nearby.
Minimum magnitude displayed is 2.5.

Nearby Weather Stations

Station Location Temp. Windchill Dew Point Humidity Wind Precip. Elev Updated Type
St Jean Baptiste MB, Saint Jean Baptiste 39.7 °F 36 °F 36 °F 88% NNE  at  5.8 mph - / hr 771 ft 11:52 PM CDT Normal

Show More Stations Show Fewer Stations

What do you think?

We're not finished. Please let us know what you like, what you don't like, and what you are still missing.